Time;durP1;ratioP1;P1;durP2;ratioP2;P2;SDS_P1;SDS_P2;PMS_P1;PMS_P2;Temp;Humidity;BMP_temperature;BMP_pressure;BME280_temperature;BME280_humidity;BME280_pressure;Samples;Min_cycle;Max_cycle;Signal;HPM_P1;HPM_P2
2022/07/14 00:00:52;;;;;;;1.20;1.10;;;16.70;99.90;17.60;97319.00;;;;5047129;28;20220;-69
2022/07/14 00:03:41;;;;;;;1.40;0.80;;;16.60;99.90;17.40;97322.00;;;;5046405;28;20200;-69
2022/07/14 00:06:31;;;;;;;1.03;0.80;;;16.50;99.90;17.30;97321.00;;;;5048294;28;20239;-68
2022/07/14 00:09:20;;;;;;;1.37;1.07;;;16.40;99.90;17.50;97320.00;;;;5040174;28;20220;-69
2022/07/14 00:12:09;;;;;;;1.20;1.10;;;16.40;99.90;17.30;97325.00;;;;5048738;28;20197;-69
2022/07/14 00:14:58;;;;;;;1.40;1.17;;;16.30;99.90;17.60;97332.00;;;;5047726;28;20193;-69
2022/07/14 00:17:46;;;;;;;1.80;0.80;;;16.30;99.90;17.60;97326.00;;;;5047758;28;20196;-69
2022/07/14 00:20:35;;;;;;;1.10;1.00;;;16.30;99.90;17.90;97320.00;;;;5047377;28;20220;-69
2022/07/14 00:23:26;;;;;;;1.67;1.10;;;16.30;99.90;18.00;97324.00;;;;5047477;28;20975;-69
2022/07/14 00:26:15;;;;;;;3.90;1.10;;;16.40;99.90;17.50;97321.00;;;;5047945;28;20207;-67
2022/07/14 00:29:04;;;;;;;1.40;1.10;;;16.40;99.90;16.90;97316.00;;;;5046715;28;20231;-68
2022/07/14 00:31:53;;;;;;;1.20;1.03;;;16.30;99.90;16.80;97328.00;;;;5041244;28;20204;-68
2022/07/14 00:34:42;;;;;;;1.27;0.90;;;16.10;99.90;16.70;97320.00;;;;5048401;28;20205;-68
2022/07/14 00:37:31;;;;;;;0.70;0.70;;;15.90;99.90;17.00;97322.00;;;;5046722;28;20204;-69
2022/07/14 00:40:21;;;;;;;1.87;1.60;;;15.80;99.90;17.20;97328.00;;;;5047061;28;20228;-68
2022/07/14 00:43:09;;;;;;;1.83;1.10;;;15.80;99.90;17.20;97319.00;;;;5045041;28;20216;-68
2022/07/14 00:45:58;;;;;;;1.90;1.60;;;15.80;99.90;17.20;97320.00;;;;5048676;28;20204;-68
2022/07/14 00:48:47;;;;;;;3.43;1.27;;;15.90;99.90;17.20;97315.00;;;;5046785;28;20270;-68
2022/07/14 00:51:36;;;;;;;2.30;1.20;;;15.90;99.90;17.20;97317.00;;;;5048395;28;20213;-68
2022/07/14 00:54:29;;;;;;;3.70;1.50;;;15.90;99.90;17.00;97309.00;;;;5038617;28;20199;-70
2022/07/14 00:57:19;;;;;;;2.53;2.27;;;15.90;99.90;16.90;97314.00;;;;5047201;28;20206;-69
2022/07/14 01:00:12;;;;;;;1.60;1.50;;;15.80;99.90;16.90;97310.00;;;;5047184;28;20236;-69
2022/07/14 01:03:00;;;;;;;1.27;1.17;;;15.80;99.90;16.70;97306.00;;;;5037316;28;20208;-68
2022/07/14 01:05:49;;;;;;;2.37;1.70;;;15.70;99.90;16.60;97307.00;;;;5047364;28;20254;-69
2022/07/14 01:08:38;;;;;;;1.47;1.37;;;15.70;99.90;16.30;97295.00;;;;5046287;28;20224;-67
2022/07/14 01:11:28;;;;;;;1.10;1.00;;;15.50;99.90;16.30;97303.00;;;;5046897;28;20207;-67
2022/07/14 01:14:18;;;;;;;0.90;0.90;;;15.40;99.90;16.30;97306.00;;;;5046670;28;20204;-67
2022/07/14 01:17:08;;;;;;;1.90;1.37;;;15.40;99.90;16.60;97309.00;;;;5046770;28;20581;-67
2022/07/14 01:19:57;;;;;;;7.60;1.43;;;15.40;99.90;16.70;97313.00;;;;5041164;28;20232;-67
2022/07/14 01:22:47;;;;;;;3.70;1.03;;;15.50;99.90;16.10;97301.00;;;;5047264;28;20679;-68
2022/07/14 01:25:36;;;;;;;1.57;1.20;;;15.40;99.90;16.10;97302.00;;;;5046888;28;20200;-69
2022/07/14 01:28:24;;;;;;;0.87;0.87;;;15.30;99.90;16.30;97298.00;;;;5046415;28;20200;-69
2022/07/14 01:31:13;;;;;;;2.97;1.20;;;15.20;99.90;16.70;97307.00;;;;5047209;28;20208;-68
2022/07/14 01:34:02;;;;;;;1.87;1.27;;;15.30;99.90;16.50;97299.00;;;;5046721;28;20204;-69
2022/07/14 01:36:52;;;;;;;1.43;0.90;;;15.30;99.90;16.60;97295.00;;;;5042176;28;20568;-68
2022/07/14 01:39:42;;;;;;;1.47;1.37;;;15.30;99.90;16.60;97298.00;;;;5049880;28;20213;-69
2022/07/14 01:42:31;;;;;;;1.53;1.30;;;15.30;99.90;16.60;97302.00;;;;5045277;28;20212;-69
2022/07/14 01:45:20;;;;;;;1.73;1.30;;;15.30;99.90;16.80;97303.00;;;;5051050;28;20724;-69
2022/07/14 01:48:08;;;;;;;0.83;0.83;;;15.40;99.90;16.60;97302.00;;;;5049700;28;20204;-69
2022/07/14 01:50:57;;;;;;;2.57;1.10;;;15.40;99.90;16.30;97298.00;;;;5049266;28;20197;-69
2022/07/14 01:53:46;;;;;;;1.37;1.20;;;15.30;99.90;16.70;97296.00;;;;5049891;28;20200;-69
2022/07/14 01:56:40;;;;;;;1.30;1.13;;;15.30;99.90;16.50;97294.00;;;;5050325;28;20675;-69
2022/07/14 01:59:29;;;;;;;1.50;1.30;;;15.40;99.90;16.30;97286.00;;;;5041946;28;20240;-69
2022/07/14 02:02:17;;;;;;;1.10;1.00;;;15.30;99.90;16.70;97290.00;;;;5049531;28;20227;-69
2022/07/14 02:05:10;;;;;;;1.33;1.23;;;15.30;99.90;16.30;97287.00;;;;5045268;28;20658;-69
2022/07/14 02:07:58;;;;;;;3.60;1.50;;;15.30;99.90;16.40;97273.00;;;;5050150;28;20704;-69
2022/07/14 02:13:54;;;;;;;1.60;1.50;;;14.90;99.90;15.70;97275.00;;;;5049765;28;20219;-68
2022/07/14 02:16:43;;;;;;;3.27;1.37;;;15.00;99.90;16.00;97284.00;;;;5049818;28;20216;-69
2022/07/14 02:19:32;;;;;;;2.73;1.50;;;15.00;99.90;16.10;97280.00;;;;5048859;28;20220;-68
2022/07/14 02:22:21;;;;;;;1.50;1.40;;;15.00;99.90;15.80;97287.00;;;;5046982;28;20247;-71
2022/07/14 02:25:10;;;;;;;1.20;1.10;;;15.00;99.90;15.90;97288.00;;;;5050443;28;20189;-68
2022/07/14 02:27:59;;;;;;;2.40;1.20;;;15.00;99.90;15.90;97287.00;;;;5049800;28;20211;-67
2022/07/14 02:30:49;;;;;;;1.07;0.97;;;14.90;99.90;15.70;97289.00;;;;5044605;28;20196;-69
2022/07/14 02:33:40;;;;;;;1.27;1.17;;;14.90;99.90;16.00;97294.00;;;;5041071;28;20200;-68
2022/07/14 02:36:28;;;;;;;2.87;1.50;;;14.90;99.90;15.90;97279.00;;;;5048772;28;20577;-68
2022/07/14 02:39:17;;;;;;;4.57;1.17;;;15.10;99.90;16.20;97289.00;;;;5048897;28;20228;-69
2022/07/14 02:42:06;;;;;;;2.20;1.73;;;14.90;99.90;16.10;97286.00;;;;5050147;28;20216;-69
2022/07/14 02:44:55;;;;;;;1.20;1.10;;;14.90;99.90;16.10;97286.00;;;;5050653;28;20581;-68
2022/07/14 02:47:45;;;;;;;1.43;1.13;;;14.90;99.90;16.00;97294.00;;;;5049116;28;20411;-70
2022/07/14 02:50:36;;;;;;;1.80;1.40;;;15.00;99.90;16.10;97294.00;;;;5047372;28;20238;-68
2022/07/14 02:53:24;;;;;;;2.13;1.43;;;15.00;99.90;16.20;97299.00;;;;5039503;28;20665;-68
2022/07/14 02:56:13;;;;;;;1.50;1.40;;;15.10;99.90;16.00;97297.00;;;;5037864;28;20208;-70
2022/07/14 02:59:05;;;;;;;1.90;1.37;;;15.00;99.90;16.00;97290.00;;;;5041318;28;20220;-68
2022/07/14 03:01:54;;;;;;;1.47;1.23;;;15.00;99.90;16.00;97288.00;;;;5047842;28;20224;-69
2022/07/14 03:04:44;;;;;;;2.50;1.60;;;15.00;99.90;15.70;97282.00;;;;5049664;28;20199;-69
2022/07/14 03:07:34;;;;;;;1.70;1.60;;;14.90;99.90;15.50;97285.00;;;;5041933;28;20200;-69
2022/07/14 03:10:23;;;;;;;2.37;1.47;;;14.80;99.90;15.40;97279.00;;;;5040125;28;20239;-68
2022/07/14 03:13:11;;;;;;;1.90;1.50;;;14.70;99.90;15.40;97277.00;;;;5048208;28;20745;-69
2022/07/14 03:16:01;;;;;;;1.20;1.20;;;14.70;99.90;15.70;97273.00;;;;5049675;28;20220;-69
2022/07/14 03:18:49;;;;;;;2.07;1.57;;;14.70;99.90;15.60;97273.00;;;;5049209;28;20228;-68
2022/07/14 03:21:39;;;;;;;1.90;1.47;;;14.70;99.90;15.30;97282.00;;;;5046231;28;20228;-70
2022/07/14 03:24:28;;;;;;;2.13;1.40;;;14.60;99.90;15.00;97288.00;;;;5048034;28;20209;-68
2022/07/14 03:27:17;;;;;;;1.60;1.50;;;14.40;99.90;15.30;97294.00;;;;5048409;28;20195;-68
2022/07/14 03:30:07;;;;;;;1.03;1.03;;;14.40;99.90;15.50;97300.00;;;;5047723;28;20221;-68
2022/07/14 03:32:56;;;;;;;3.10;1.57;;;14.40;99.90;15.40;97289.00;;;;5048504;28;20917;-69
2022/07/14 03:35:45;;;;;;;1.43;1.33;;;14.40;99.90;15.50;97297.00;;;;5048771;28;20201;-69
2022/07/14 03:38:35;;;;;;;2.90;1.40;;;14.40;99.90;15.90;97289.00;;;;5041572;28;20229;-68
2022/07/14 03:41:25;;;;;;;2.90;1.73;;;14.50;99.90;16.40;97288.00;;;;5042704;28;20229;-69
2022/07/14 03:44:13;;;;;;;1.60;1.50;;;14.70;99.90;16.30;97285.00;;;;5046081;28;20214;-68
2022/07/14 03:47:02;;;;;;;1.43;1.33;;;14.80;99.90;15.90;97287.00;;;;5048891;28;20209;-69
2022/07/14 03:49:51;;;;;;;4.57;1.30;;;14.80;99.90;15.00;97299.00;;;;5045439;28;20219;-70
2022/07/14 03:52:40;;;;;;;2.10;1.90;;;14.70;99.90;15.30;97291.00;;;;5048805;28;20197;-68
2022/07/14 03:55:31;;;;;;;2.10;1.40;;;15.40;99.90;15.10;97279.00;;;;5048191;28;20201;-70
2022/07/14 03:58:19;;;;;;;1.50;1.40;;;14.50;99.90;15.60;97279.00;;;;5047003;28;20578;-68
2022/07/14 04:01:08;;;;;;;2.43;1.37;;;14.50;99.90;16.10;97272.00;;;;5042709;28;20751;-68
2022/07/14 04:03:58;;;;;;;1.77;1.67;;;14.50;99.90;16.00;97267.00;;;;5047918;28;20276;-68
2022/07/14 04:06:46;;;;;;;3.23;2.37;;;14.60;99.90;16.40;97262.00;;;;5043140;28;20219;-68
2022/07/14 04:09:35;;;;;;;4.30;1.70;;;14.80;99.90;16.30;97248.00;;;;5040529;28;20228;-68
2022/07/14 04:12:25;;;;;;;2.73;1.50;;;14.90;99.90;16.10;97252.00;;;;5036249;28;20204;-69
2022/07/14 04:15:14;;;;;;;2.63;1.77;;;14.90;99.90;15.80;97259.00;;;;5049939;28;20213;-68
2022/07/14 04:18:03;;;;;;;1.73;1.63;;;15.00;99.90;15.60;97258.00;;;;5047964;28;20578;-69
2022/07/14 04:20:54;;;;;;;3.23;1.70;;;14.90;99.90;15.80;97279.00;;;;5026122;28;20662;-69
2022/07/14 04:23:43;;;;;;;2.30;1.70;;;14.80;99.90;16.10;97281.00;;;;5048063;28;20858;-69
2022/07/14 04:26:32;;;;;;;3.63;1.53;;;14.80;99.90;16.20;97264.00;;;;5039818;28;20204;-69
2022/07/14 04:29:23;;;;;;;3.10;1.37;;;14.90;99.90;16.40;97271.00;;;;5042628;28;20221;-68
2022/07/14 04:32:12;;;;;;;1.70;1.60;;;14.90;99.90;16.30;97269.00;;;;5047645;28;20208;-70
2022/07/14 04:35:01;;;;;;;2.67;1.60;;;15.10;99.90;16.40;97269.00;;;;5044322;28;20206;-67
2022/07/14 04:37:50;;;;;;;1.53;1.43;;;15.20;99.90;16.70;97282.00;;;;5047254;28;20207;-68
2022/07/14 04:40:39;;;;;;;3.23;1.40;;;15.30;99.90;16.90;97280.00;;;;5048683;28;20196;-68
2022/07/14 04:43:27;;;;;;;1.60;1.50;;;15.50;99.90;17.10;97284.00;;;;5047121;28;20236;-68
2022/07/14 04:46:18;;;;;;;2.70;1.60;;;15.60;99.90;17.10;97274.00;;;;5048134;28;20204;-68
2022/07/14 04:52:12;;;;;;;1.83;1.53;;;15.80;99.90;16.80;97263.00;;;;5041108;28;20699;-67
2022/07/14 04:55:06;;;;;;;3.40;2.00;;;15.80;99.90;17.10;97261.00;;;;5048472;28;20734;-68
2022/07/14 04:57:55;;;;;;;1.20;1.10;;;15.90;99.90;16.80;97262.00;;;;5042566;28;20205;-68
2022/07/14 05:00:44;;;;;;;1.80;1.70;;;15.90;99.90;17.00;97249.00;;;;5044155;28;20208;-69
2022/07/14 05:03:34;;;;;;;1.60;1.50;;;15.90;99.90;17.10;97258.00;;;;5029013;28;20236;-69
2022/07/14 05:06:23;;;;;;;2.03;1.90;;;16.00;99.90;17.60;97256.00;;;;5048770;28;20231;-68
2022/07/14 05:09:13;;;;;;;3.67;1.80;;;16.10;99.90;17.90;97261.00;;;;5046150;28;20756;-68
2022/07/14 05:12:02;;;;;;;3.07;1.67;;;16.40;99.90;18.20;97255.00;;;;5043005;28;20212;-68
2022/07/14 05:14:51;;;;;;;4.17;2.10;;;16.60;99.90;18.50;97259.00;;;;5034656;28;20197;-68
2022/07/14 05:17:40;;;;;;;2.57;1.80;;;16.80;99.90;18.50;97262.00;;;;5036869;28;20205;-68
2022/07/14 05:20:30;;;;;;;2.40;1.87;;;16.90;99.90;18.70;97263.00;;;;5047477;28;20225;-68
2022/07/14 05:23:19;;;;;;;3.93;2.10;;;17.10;99.90;18.90;97267.00;;;;5044120;28;20294;-68
2022/07/14 05:26:11;;;;;;;2.03;1.80;;;17.30;99.90;19.20;97264.00;;;;5048761;28;20193;-69
2022/07/14 05:29:00;;;;;;;2.60;1.97;;;17.50;99.90;19.30;97271.00;;;;5038601;28;20221;-68
2022/07/14 05:31:49;;;;;;;3.70;1.90;;;17.60;99.90;19.50;97277.00;;;;5047809;28;20208;-68
2022/07/14 05:34:43;;;;;;;2.90;2.03;;;17.80;99.90;19.80;97275.00;;;;5047496;28;20197;-68
2022/07/14 05:37:33;;;;;;;2.83;2.47;;;17.90;99.90;19.80;97272.00;;;;5034470;28;20201;-68
2022/07/14 05:40:21;;;;;;;5.00;2.10;;;18.10;99.90;19.80;97258.00;;;;5046911;28;20602;-69
2022/07/14 05:43:11;;;;;;;3.57;1.60;;;18.30;99.90;20.00;97266.00;;;;5047238;28;20216;-68
2022/07/14 05:46:05;;;;;;;2.80;1.87;;;18.40;99.90;20.50;97263.00;;;;5047263;28;20208;-68
2022/07/14 05:48:54;;;;;;;2.73;2.00;;;18.60;99.90;21.10;97259.00;;;;5040733;28;20213;-68
2022/07/14 05:51:42;;;;;;;3.00;1.87;;;18.90;99.90;21.40;97271.00;;;;5047820;28;20216;-68
2022/07/14 05:54:33;;;;;;;5.50;2.03;;;19.10;99.90;21.00;97256.00;;;;5047592;28;20205;-70
2022/07/14 05:57:22;;;;;;;2.07;1.67;;;19.30;99.90;20.90;97257.00;;;;5046998;28;20227;-69
2022/07/14 06:00:12;;;;;;;5.70;1.80;;;19.40;99.90;21.40;97262.00;;;;5044571;28;20571;-69
2022/07/14 06:03:00;;;;;;;5.07;1.70;;;19.50;99.90;21.90;97258.00;;;;5047306;28;20603;-69
2022/07/14 06:05:49;;;;;;;8.03;2.60;;;19.70;99.90;22.00;97264.00;;;;5046850;28;20209;-69
2022/07/14 06:08:38;;;;;;;3.07;1.97;;;19.90;99.90;22.30;97249.00;;;;5045754;28;20235;-68
2022/07/14 06:11:28;;;;;;;8.63;1.73;;;20.10;99.90;22.60;97253.00;;;;5039522;28;20211;-68
2022/07/14 06:14:17;;;;;;;5.43;2.03;;;20.40;99.90;22.70;97254.00;;;;5034557;28;20197;-68
2022/07/14 06:17:06;;;;;;;3.13;1.80;;;20.60;99.90;22.90;97255.00;;;;5041441;28;20192;-68
2022/07/14 06:19:54;;;;;;;4.30;2.73;;;20.80;99.90;22.60;97252.00;;;;5042017;28;20228;-69
2022/07/14 06:22:43;;;;;;;4.73;1.90;;;20.90;99.90;22.90;97252.00;;;;5036102;28;20402;-68
2022/07/14 06:25:32;;;;;;;6.33;2.03;;;21.00;99.90;22.20;97249.00;;;;5040606;28;20593;-69
2022/07/14 06:28:22;;;;;;;4.97;1.93;;;21.00;99.90;22.60;97246.00;;;;5038632;28;20201;-69
2022/07/14 06:31:11;;;;;;;2.43;2.10;;;21.00;99.90;22.40;97260.00;;;;5045655;28;20201;-68
2022/07/14 06:33:59;;;;;;;2.93;1.93;;;21.00;99.90;22.40;97262.00;;;;5049215;28;20212;-68
2022/07/14 06:36:48;;;;;;;3.13;2.20;;;20.90;99.90;22.50;97255.00;;;;5050937;28;20786;-68
2022/07/14 06:39:37;;;;;;;3.47;2.13;;;20.80;99.90;22.50;97242.00;;;;5048495;28;20228;-68
2022/07/14 06:42:26;;;;;;;3.27;1.67;;;20.80;99.90;22.50;97241.00;;;;5049600;28;20205;-69
2022/07/14 06:45:16;;;;;;;4.13;1.83;;;20.80;99.90;22.50;97252.00;;;;5050158;28;20230;-69
2022/07/14 06:48:05;;;;;;;5.33;2.07;;;20.80;99.90;22.50;97239.00;;;;5046896;28;20565;-69
2022/07/14 06:50:54;;;;;;;2.20;1.93;;;20.80;99.90;22.60;97243.00;;;;5040099;28;20201;-69
2022/07/14 06:53:43;;;;;;;2.30;1.80;;;20.90;99.90;22.70;97241.00;;;;5049368;28;20208;-68
2022/07/14 06:56:31;;;;;;;5.60;1.70;;;20.90;99.90;22.60;97244.00;;;;5050774;28;20196;-69
2022/07/14 06:59:20;;;;;;;4.83;2.00;;;20.90;99.90;22.30;97245.00;;;;5048724;28;20224;-68
2022/07/14 07:02:10;;;;;;;3.00;2.37;;;20.90;99.90;22.60;97242.00;;;;5048730;28;20201;-69
2022/07/14 07:08:06;;;;;;;2.53;1.70;;;21.10;99.90;22.70;97256.00;;;;5043644;28;20193;-68
2022/07/14 07:10:57;;;;;;;4.83;2.03;;;21.20;99.90;22.50;97265.00;;;;5041431;28;20215;-69
2022/07/14 07:13:46;;;;;;;4.17;1.77;;;21.20;99.90;22.80;97282.00;;;;5048426;28;20208;-68
2022/07/14 07:16:34;;;;;;;5.97;1.77;;;21.20;99.90;22.70;97282.00;;;;5050111;28;20209;-68
2022/07/14 07:19:26;;;;;;;3.53;1.50;;;21.20;99.90;22.50;97278.00;;;;5044085;28;20227;-69
2022/07/14 07:22:15;;;;;;;2.97;2.00;;;21.20;99.90;22.50;97267.00;;;;5036839;28;20205;-68
2022/07/14 07:25:04;;;;;;;2.37;1.87;;;21.20;99.90;22.50;97261.00;;;;5039981;28;20687;-68
2022/07/14 07:27:53;;;;;;;6.33;2.13;;;21.20;99.90;23.20;97269.00;;;;5041318;28;20705;-68
2022/07/14 07:30:42;;;;;;;4.97;2.13;;;21.30;99.90;23.10;97257.00;;;;5043192;28;20197;-68
2022/07/14 07:33:32;;;;;;;6.30;1.70;;;21.40;99.90;23.20;97246.00;;;;5041759;28;20208;-68
2022/07/14 07:36:22;;;;;;;4.50;1.53;;;21.50;99.90;23.50;97242.00;;;;5043089;28;20193;-68
2022/07/14 07:39:11;;;;;;;5.57;1.73;;;21.60;99.90;23.80;97236.00;;;;5042318;28;20945;-68
2022/07/14 07:42:01;;;;;;;3.97;1.33;;;21.80;99.90;23.90;97234.00;;;;5042155;28;20200;-68
2022/07/14 07:44:49;;;;;;;1.97;1.60;;;21.90;99.90;23.90;97228.00;;;;5048187;28;20232;-68
2022/07/14 07:47:38;;;;;;;2.13;1.93;;;22.00;99.90;24.20;97223.00;;;;5046856;28;20203;-68
2022/07/14 07:50:27;;;;;;;5.23;2.33;;;22.20;99.90;25.10;97198.00;;;;5034305;28;20260;-68
2022/07/14 07:53:17;;;;;;;3.27;1.43;;;22.60;99.30;25.00;97205.00;;;;5039804;28;20681;-69
2022/07/14 07:56:07;;;;;;;3.20;1.83;;;22.90;98.50;24.50;97206.00;;;;5045348;28;20208;-69
2022/07/14 07:58:55;;;;;;;1.93;1.47;;;23.10;98.30;24.20;97213.00;;;;5041548;28;20232;-68
2022/07/14 08:01:44;;;;;;;3.70;3.07;;;23.10;96.90;25.00;97209.00;;;;5045709;28;20204;-68
2022/07/14 08:04:34;;;;;;;2.67;2.30;;;23.20;97.90;24.90;97200.00;;;;5047465;28;20617;-69
2022/07/14 08:07:22;;;;;;;3.73;1.90;;;23.30;96.50;25.00;97204.00;;;;5044166;28;20216;-69
2022/07/14 08:10:12;;;;;;;3.13;1.93;;;23.40;97.20;25.40;97204.00;;;;5045652;28;21052;-69
2022/07/14 08:13:01;;;;;;;4.50;2.63;;;23.40;97.40;25.40;97206.00;;;;5047490;28;20201;-68
2022/07/14 08:15:50;;;;;;;6.10;1.73;;;23.50;97.70;25.50;97204.00;;;;5045014;28;20196;-68
2022/07/14 08:18:40;;;;;;;2.50;2.27;;;23.50;96.80;25.60;97206.00;;;;5047374;28;20212;-68
2022/07/14 08:21:28;;;;;;;3.77;2.00;;;23.60;97.10;25.50;97200.00;;;;5043913;28;20193;-68
2022/07/14 08:24:18;;;;;;;6.33;1.90;;;23.70;96.00;25.80;97204.00;;;;5039217;28;20217;-68
2022/07/14 08:27:08;;;;;;;4.67;2.07;;;23.80;96.20;26.20;97177.00;;;;5042712;28;20193;-68
2022/07/14 08:29:57;;;;;;;2.50;1.57;;;24.00;95.90;26.10;97195.00;;;;5038313;28;20219;-68
2022/07/14 08:32:51;;;;;;;3.53;1.97;;;24.10;95.00;26.50;97192.00;;;;5034075;28;20224;-68
2022/07/14 08:35:40;;;;;;;1.93;1.40;;;24.30;94.70;26.90;97188.00;;;;5038436;28;20254;-68
2022/07/14 08:38:29;;;;;;;2.43;1.40;;;24.50;94.40;27.10;97175.00;;;;5039659;28;20205;-68
2022/07/14 08:41:17;;;;;;;2.90;1.43;;;24.80;93.70;26.70;97181.00;;;;5036148;28;20196;-68
2022/07/14 08:44:09;;;;;;;2.13;1.57;;;24.90;92.70;27.00;97180.00;;;;5036529;28;20313;-68
2022/07/14 08:46:58;;;;;;;2.77;1.93;;;25.00;92.40;27.00;97179.00;;;;5037769;28;20202;-67
2022/07/14 08:49:47;;;;;;;2.10;1.80;;;25.10;92.20;27.40;97185.00;;;;5037093;28;20225;-67
2022/07/14 08:52:52;;;;;;;2.70;1.90;;;25.20;92.40;26.00;97189.00;;;;5038392;28;20217;-68
2022/07/14 08:55:41;;;;;;;4.17;1.90;;;25.10;90.70;26.30;97182.00;;;;5033676;28;20570;-67
2022/07/14 08:58:30;;;;;;;8.03;2.13;;;25.00;91.30;26.00;97183.00;;;;5035412;28;20583;-68
2022/07/14 09:01:21;;;;;;;2.23;1.93;;;24.90;90.50;26.50;97182.00;;;;5035600;28;20209;-68
2022/07/14 09:04:10;;;;;;;3.23;1.60;;;24.90;90.10;27.10;97167.00;;;;5033308;28;20252;-68
2022/07/14 09:07:00;;;;;;;2.60;1.90;;;25.10;90.40;27.40;97167.00;;;;5030631;28;21164;-68
2022/07/14 09:10:05;;;;;;;2.73;1.73;;;25.30;91.10;27.50;97163.00;;;;5028831;28;20233;-68
2022/07/14 09:13:11;;;;;;;8.17;1.77;;;25.50;92.90;27.80;97158.00;;;;5031177;28;20224;-68
2022/07/14 09:16:18;;;;;;;6.30;1.47;;;25.70;90.90;27.90;97161.00;;;;5034889;28;20700;-68
2022/07/14 09:19:09;;;;;;;3.73;1.70;;;25.80;90.40;28.30;97165.00;;;;5034859;28;20237;-69
2022/07/14 09:22:01;;;;;;;2.67;1.80;;;26.00;90.80;27.80;97157.00;;;;5032202;28;20194;-69
2022/07/14 09:24:53;;;;;;;5.13;1.90;;;26.10;89.70;28.10;97159.00;;;;5030722;28;20221;-68
2022/07/14 09:27:45;;;;;;;2.10;1.90;;;26.20;89.50;28.30;97149.00;;;;5034208;28;20200;-68
2022/07/14 09:30:35;;;;;;;4.07;1.77;;;26.30;90.30;28.20;97158.00;;;;5034414;28;20617;-67
2022/07/14 09:33:25;;;;;;;5.10;1.83;;;26.30;87.60;28.60;97167.00;;;;5034494;28;20226;-68
2022/07/14 09:36:28;;;;;;;2.70;1.77;;;26.40;87.60;28.60;97157.00;;;;5037438;28;20240;-67
2022/07/14 09:39:18;;;;;;;2.27;1.83;;;26.60;87.40;28.70;97152.00;;;;5034510;28;20234;-67
2022/07/14 09:42:06;;;;;;;1.87;1.50;;;26.80;88.20;29.10;97144.00;;;;5032265;28;20260;-67
2022/07/14 09:45:09;;;;;;;4.03;1.73;;;26.90;88.90;28.70;97146.00;;;;5033233;28;20228;-67
2022/07/14 09:48:06;;;;;;;3.20;1.90;;;27.00;85.90;29.30;97147.00;;;;5040390;28;20272;-67
2022/07/14 09:50:59;;;;;;;2.07;1.50;;;27.10;86.60;29.40;97151.00;;;;5032516;28;20206;-68
2022/07/14 09:53:50;;;;;;;2.47;2.23;;;27.10;85.20;29.70;97125.00;;;;5032532;28;20207;-67
2022/07/14 09:56:40;;;;;;;2.43;2.23;;;27.40;86.30;29.90;97128.00;;;;5020869;28;20211;-67
2022/07/14 09:59:29;;;;;;;2.07;1.70;;;27.70;87.10;31.00;97114.00;;;;5030298;28;20232;-67
2022/07/14 10:02:22;;;;;;;3.67;1.50;;;28.10;84.30;30.60;97085.00;;;;5034664;28;20196;-67
2022/07/14 10:05:12;;;;;;;3.00;1.83;;;28.40;82.50;30.80;97106.00;;;;5028568;28;21179;-67
2022/07/14 10:08:06;;;;;;;2.30;1.77;;;28.60;79.40;31.10;97116.00;;;;5029816;28;20215;-67
2022/07/14 10:11:00;;;;;;;3.70;1.50;;;28.70;78.90;30.90;97102.00;;;;5035183;28;20210;-67
2022/07/14 10:13:50;;;;;;;2.00;1.50;;;28.80;76.90;31.60;97105.00;;;;5030236;28;20212;-67
2022/07/14 10:16:39;;;;;;;2.57;1.80;;;28.90;77.60;32.00;97102.00;;;;5034356;28;20268;-68
2022/07/14 10:19:28;;;;;;;3.93;1.90;;;29.30;78.40;32.10;97112.00;;;;5031926;28;20612;-67
2022/07/14 10:22:18;;;;;;;4.97;1.73;;;29.50;76.10;31.90;97107.00;;;;5032560;28;20960;-67
2022/07/14 10:25:10;;;;;;;3.40;1.38;;;29.60;75.70;32.30;97100.00;;;;5031704;28;20236;-67
2022/07/14 10:28:01;;;;;;;1.50;1.40;;;29.70;75.70;32.30;97109.00;;;;5033332;28;20212;-67
2022/07/14 10:31:06;;;;;;;4.00;2.15;;;29.80;75.90;31.80;97096.00;;;;5033277;28;20580;-68
2022/07/14 10:34:06;;;;;;;2.53;2.33;;;29.90;74.70;31.70;97097.00;;;;5026213;28;20686;-67
2022/07/14 10:37:02;;;;;;;3.42;2.00;;;29.80;74.80;31.60;97099.00;;;;5030621;28;20253;-67
2022/07/14 10:40:06;;;;;;;2.35;1.48;;;29.80;73.50;31.70;97098.00;;;;5032086;28;20227;-67
2022/07/14 10:43:05;;;;;;;2.22;1.98;;;29.70;74.10;31.40;97099.00;;;;5034332;28;20247;-68
2022/07/14 10:45:58;;;;;;;2.58;1.70;;;29.60;74.50;31.70;97097.00;;;;5031901;28;20226;-68
2022/07/14 10:48:50;;;;;;;4.93;1.55;;;29.60;74.30;31.60;97089.00;;;;5044706;28;20246;-67
2022/07/14 10:51:48;;;;;;;5.20;1.92;;;29.60;74.10;31.80;97091.00;;;;5039554;28;20200;-67
2022/07/14 10:54:36;;;;;;;1.73;1.63;;;29.60;74.90;31.80;97085.00;;;;5040628;28;20723;-68
2022/07/14 10:57:31;;;;;;;4.63;1.90;;;29.60;74.60;31.90;97086.00;;;;5029519;28;20213;-68
2022/07/14 11:00:58;;;;;;;2.42;1.52;;;29.70;75.00;32.20;97074.00;;;;5030834;28;21535;-68
2022/07/14 11:03:50;;;;;;;3.25;1.73;;;29.80;74.60;32.00;97076.00;;;;5031798;28;20673;-68
2022/07/14 11:06:39;;;;;;;2.90;1.65;;;29.80;73.50;32.20;97070.00;;;;5034141;28;20237;-68
2022/07/14 11:09:37;;;;;;;2.65;1.73;;;29.90;74.20;32.30;97065.00;;;;5036607;28;20232;-68
2022/07/14 11:12:27;;;;;;;2.20;1.60;;;30.00;72.60;32.20;97071.00;;;;5046441;28;20931;-67
2022/07/14 11:15:38;;;;;;;4.55;1.83;;;30.00;73.80;32.30;97077.00;;;;5035951;28;20212;-67
2022/07/14 11:18:34;;;;;;;3.10;1.85;;;30.00;73.80;32.10;97069.00;;;;5034496;28;20215;-67
2022/07/14 11:21:23;;;;;;;2.60;1.33;;;30.00;74.10;32.30;97066.00;;;;5034288;28;20215;-67
2022/07/14 11:24:12;;;;;;;1.30;1.20;;;30.00;73.30;32.30;97076.00;;;;5027084;28;20196;-67
2022/07/14 11:27:31;;;;;;;2.88;1.73;;;30.00;71.30;31.70;97068.00;;;;5034139;28;20237;-67
2022/07/14 11:30:28;;;;;;;4.28;1.55;;;30.00;68.70;32.10;97040.00;;;;5033092;28;20236;-67
2022/07/14 11:33:34;;;;;;;1.52;1.42;;;30.00;67.50;33.20;97005.00;;;;5038308;28;20679;-67
2022/07/14 11:36:22;;;;;;;3.47;1.65;;;30.50;72.70;32.90;96996.00;;;;5036871;28;20214;-67
2022/07/14 11:39:35;;;;;;;2.58;1.55;;;30.80;69.30;33.80;97011.00;;;;5040525;28;21004;-68
2022/07/14 11:42:24;;;;;;;1.50;1.40;;;31.20;67.60;33.60;96982.00;;;;5035932;28;20211;-67
2022/07/14 11:45:14;;;;;;;2.35;1.50;;;31.60;64.60;34.50;96997.00;;;;5035820;28;20881;-67
2022/07/14 11:48:07;;;;;;;1.30;1.17;;;31.90;60.80;34.10;97034.00;;;;5030278;28;20236;-67
2022/07/14 11:51:04;;;;;;;1.42;1.33;;;31.90;60.00;34.30;97024.00;;;;5038137;28;20206;-67
2022/07/14 11:53:56;;;;;;;1.73;1.63;;;31.90;58.30;33.90;97042.00;;;;5031356;28;20197;-67
2022/07/14 11:56:46;;;;;;;1.38;1.27;;;31.90;59.40;34.10;97041.00;;;;5034661;28;20195;-68
2022/07/14 11:59:36;;;;;;;2.05;1.58;;;31.80;61.10;33.80;97015.00;;;;5039073;28;20221;-67
2022/07/14 12:02:25;;;;;;;2.88;1.30;;;31.70;62.90;35.40;97019.00;;;;5038155;28;20733;-68
2022/07/14 12:05:15;;;;;;;2.08;1.60;;;32.10;64.60;35.50;96988.00;;;;5037233;28;20597;-67
2022/07/14 12:08:05;;;;;;;2.30;1.30;;;32.40;62.20;36.60;96976.00;;;;5036216;28;20206;-67
2022/07/14 12:10:55;;;;;;;2.05;1.25;;;33.00;60.60;37.30;96973.00;;;;5037087;28;20209;-68
2022/07/14 12:13:50;;;;;;;1.50;1.40;;;33.60;59.70;36.50;96991.00;;;;5037881;28;20196;-68
2022/07/14 12:16:44;;;;;;;2.15;1.95;;;33.70;58.80;36.60;97006.00;;;;5038241;28;20604;-68
2022/07/14 12:19:33;;;;;;;2.95;1.58;;;33.80;58.80;36.00;96993.00;;;;5031840;28;20217;-68
2022/07/14 12:22:23;;;;;;;3.55;1.80;;;33.80;58.30;37.60;96986.00;;;;5035672;28;20672;-68
2022/07/14 12:25:27;;;;;;;2.47;1.50;;;34.10;58.70;37.50;96980.00;;;;5033080;28;20207;-68
2022/07/14 12:28:18;;;;;;;5.45;1.85;;;34.50;57.90;37.40;96967.00;;;;5028848;28;20408;-68
2022/07/14 12:31:08;;;;;;;2.25;1.13;;;34.70;55.20;37.90;96978.00;;;;5029335;28;20273;-68
2022/07/14 12:34:00;;;;;;;1.77;1.60;;;34.80;56.70;37.70;96974.00;;;;5028919;28;20209;-68
2022/07/14 12:36:50;;;;;;;2.40;1.33;;;35.00;56.90;37.70;96988.00;;;;5031356;28;20224;-68
2022/07/14 12:39:42;;;;;;;2.33;1.60;;;35.00;56.90;36.70;96975.00;;;;5031773;28;20251;-68
2022/07/14 12:42:35;;;;;;;1.30;1.20;;;;;37.60;96923.00;;;;5031459;28;20208;-69
2022/07/14 12:45:24;;;;;;;2.80;1.65;;;35.10;54.30;36.20;96972.00;;;;5035536;28;20208;-69
2022/07/14 12:48:13;;;;;;;1.70;1.60;;;35.10;55.10;38.00;96921.00;;;;5035639;28;20204;-68